createdAt,value
2022-11-28T00:02:01.588Z,5.72
2022-11-28T00:04:51.907Z,6.38
2022-11-28T00:07:39.099Z,4.78
2022-11-28T00:10:26.399Z,4.63
2022-11-28T00:13:13.945Z,5.25
2022-11-28T00:16:03.302Z,5.25
2022-11-28T00:18:52.047Z,4.05
2022-11-28T00:21:39.660Z,5.63
2022-11-28T00:24:26.735Z,4.97
2022-11-28T00:27:13.750Z,5.20
2022-11-28T00:30:01.020Z,4.82
2022-11-28T00:32:48.035Z,5.10
2022-11-28T00:35:35.048Z,5.00
2022-11-28T00:38:22.034Z,5.50
2022-11-28T00:41:13.864Z,4.97
2022-11-28T00:44:01.627Z,6.32
2022-11-28T00:46:48.657Z,5.32
2022-11-28T00:49:35.726Z,5.10
2022-11-28T00:52:22.925Z,5.18
2022-11-28T00:55:09.980Z,4.60
2022-11-28T00:57:56.978Z,4.78
2022-11-28T01:00:44.048Z,4.22
2022-11-28T01:03:31.094Z,4.05
2022-11-28T01:06:39.867Z,4.95
2022-11-28T01:09:26.920Z,5.47
2022-11-28T01:12:13.908Z,5.63
2022-11-28T01:15:00.963Z,5.45
2022-11-28T01:17:47.967Z,5.43
2022-11-28T01:20:35.143Z,5.97
2022-11-28T01:23:22.207Z,6.03
2022-11-28T01:26:11.297Z,6.57
2022-11-28T01:29:00.569Z,5.72
2022-11-28T01:31:47.654Z,5.97
2022-11-28T01:34:34.679Z,5.22
2022-11-28T01:37:21.658Z,4.85
2022-11-28T01:40:10.893Z,5.15
2022-11-28T01:42:57.963Z,5.55
2022-11-28T01:45:45.388Z,4.75
2022-11-28T01:48:37.577Z,5.65
2022-11-28T01:51:24.811Z,5.88
2022-11-28T01:54:12.911Z,5.10
2022-11-28T01:57:11.128Z,5.38
2022-11-28T02:00:11.844Z,5.55
2022-11-28T02:03:29.754Z,5.18
2022-11-28T02:06:20.081Z,5.25
2022-11-28T02:09:14.790Z,5.35
2022-11-28T02:12:22.671Z,6.13
2022-11-28T02:15:32.363Z,5.53
2022-11-28T02:18:32.201Z,5.72
2022-11-28T02:21:46.769Z,5.05
2022-11-28T02:25:02.783Z,5.40
2022-11-28T02:28:11.633Z,4.93
2022-11-28T02:31:13.799Z,5.22
2022-11-28T02:34:06.276Z,5.70
2022-11-28T02:37:45.971Z,5.22
2022-11-28T02:41:01.667Z,5.45
2022-11-28T02:44:01.468Z,5.57
2022-11-28T02:47:03.889Z,6.00
2022-11-28T02:49:54.706Z,6.00
2022-11-28T02:52:59.983Z,4.80
2022-11-28T02:55:48.872Z,5.05
2022-11-28T02:58:36.839Z,5.47
2022-11-28T03:01:34.628Z,5.50
2022-11-28T03:04:45.034Z,5.35
2022-11-28T03:08:00.105Z,4.78
2022-11-28T03:11:10.959Z,5.43
2022-11-28T03:14:17.112Z,5.53
2022-11-28T03:17:15.611Z,5.43
2022-11-28T03:20:30.495Z,5.20
2022-11-28T03:23:36.770Z,5.28
2022-11-28T03:26:33.469Z,6.00
2022-11-28T03:29:32.755Z,5.10
2022-11-28T03:32:29.948Z,6.10
2022-11-28T03:35:21.664Z,5.00
2022-11-28T03:38:18.554Z,4.97
2022-11-28T03:41:14.792Z,5.35
2022-11-28T03:44:04.961Z,5.13
2022-11-28T03:46:53.425Z,5.00
2022-11-28T03:49:51.320Z,6.40
2022-11-28T03:52:43.312Z,5.90
2022-11-28T03:55:42.127Z,5.78
2022-11-28T03:58:52.247Z,6.18
2022-11-28T04:02:02.591Z,6.15
2022-11-28T04:05:27.121Z,5.57
2022-11-28T04:08:17.051Z,5.57
2022-11-28T04:11:11.142Z,5.72
2022-11-28T04:14:05.045Z,5.15
2022-11-28T04:16:54.771Z,6.35
2022-11-28T04:19:58.307Z,5.50
2022-11-28T04:22:51.516Z,5.35
2022-11-28T04:25:42.726Z,5.70
2022-11-28T04:28:32.789Z,5.13
2022-11-28T04:31:22.829Z,4.82
2022-11-28T04:34:14.141Z,5.35
2022-11-28T04:37:09.474Z,5.38
2022-11-28T04:39:57.325Z,4.53
2022-11-28T04:42:53.006Z,5.93
2022-11-28T04:45:46.834Z,4.72
2022-11-28T04:48:34.656Z,4.55
2022-11-28T04:51:36.171Z,5.18
2022-11-28T04:54:33.271Z,7.05
2022-11-28T04:57:37.712Z,6.13
2022-11-28T05:00:26.318Z,6.15
2022-11-28T05:03:13.481Z,5.32
2022-11-28T05:06:01.912Z,5.43
2022-11-28T05:08:49.045Z,4.97
2022-11-28T05:11:36.094Z,4.65
2022-11-28T05:14:23.355Z,5.35
2022-11-28T05:17:12.843Z,5.97
2022-11-28T05:19:59.953Z,6.22
2022-11-28T05:22:46.960Z,5.55
2022-11-28T05:25:34.020Z,5.95
2022-11-28T05:28:21.230Z,5.43
2022-11-28T05:31:08.273Z,6.15
2022-11-28T05:33:56.361Z,6.43
2022-11-28T05:36:43.616Z,6.00
2022-11-28T05:39:31.020Z,6.55
2022-11-28T05:42:18.424Z,6.43
2022-11-28T05:45:05.919Z,6.00
2022-11-28T05:47:52.941Z,6.30
2022-11-28T05:50:41.257Z,7.82
2022-11-28T05:53:28.363Z,6.93
2022-11-28T05:56:18.787Z,7.57
2022-11-28T05:59:05.963Z,5.30
2022-11-28T06:01:53.066Z,6.50
2022-11-28T06:04:41.835Z,7.38
2022-11-28T06:07:29.070Z,5.57
2022-11-28T06:10:16.172Z,6.03
2022-11-28T06:13:03.332Z,6.80
2022-11-28T06:15:50.376Z,18.67
2022-11-28T06:18:38.765Z,13.57
2022-11-28T06:21:26.722Z,9.40
2022-11-28T06:24:13.877Z,9.10
2022-11-28T06:27:00.910Z,9.85
2022-11-28T06:29:47.915Z,9.25
2022-11-28T06:32:35.181Z,9.98
2022-11-28T06:35:22.240Z,9.13
2022-11-28T06:38:14.048Z,9.30
2022-11-28T06:41:04.271Z,9.40
2022-11-28T06:43:51.542Z,9.38
2022-11-28T06:46:38.696Z,10.88
2022-11-28T06:49:25.725Z,8.88
2022-11-28T06:52:12.774Z,9.05
2022-11-28T06:54:59.797Z,10.65
2022-11-28T06:57:46.914Z,9.55
2022-11-28T07:00:34.257Z,8.90
2022-11-28T07:03:21.256Z,9.13
2022-11-28T07:06:08.924Z,9.00
2022-11-28T07:08:59.750Z,7.93
2022-11-28T07:11:46.761Z,7.32
2022-11-28T07:14:34.588Z,7.80
2022-11-28T07:17:21.611Z,7.78
2022-11-28T07:20:09.169Z,7.72
2022-11-28T07:22:56.193Z,7.25
2022-11-28T07:25:43.254Z,7.47
2022-11-28T07:28:31.390Z,7.90
2022-11-28T07:31:21.711Z,8.82
2022-11-28T07:34:09.472Z,8.65
2022-11-28T07:36:56.481Z,10.88
2022-11-28T07:39:44.696Z,10.55
2022-11-28T07:42:32.099Z,9.82
2022-11-28T07:45:41.665Z,10.02
2022-11-28T07:54:07.785Z,7.88
2022-11-28T07:57:12.460Z,10.02
2022-11-28T07:59:59.958Z,9.73
2022-11-28T08:02:48.136Z,9.60
2022-11-28T08:05:35.144Z,9.73
2022-11-28T08:08:23.817Z,10.38
2022-11-28T08:11:11.208Z,11.40
2022-11-28T08:13:59.317Z,10.57
2022-11-28T08:16:46.575Z,11.23
2022-11-28T08:19:35.406Z,10.90
2022-11-28T08:22:22.683Z,11.38
2022-11-28T08:25:09.883Z,9.40
2022-11-28T08:27:56.934Z,11.77
2022-11-28T08:30:44.013Z,10.10
2022-11-28T08:33:31.069Z,9.60
2022-11-28T08:36:19.786Z,10.38
2022-11-28T08:39:23.509Z,9.85
2022-11-28T08:42:11.706Z,10.73
2022-11-28T08:44:58.714Z,9.85
2022-11-28T08:47:45.709Z,9.43
2022-11-28T08:50:32.700Z,8.73
2022-11-28T08:53:19.906Z,12.07
2022-11-28T08:56:07.472Z,14.50
2022-11-28T08:58:54.905Z,20.15
2022-11-28T09:01:42.060Z,20.75
2022-11-28T09:04:29.313Z,18.55
2022-11-28T09:07:16.403Z,17.45
2022-11-28T09:10:03.809Z,14.15
2022-11-28T09:12:51.750Z,13.98
2022-11-28T09:15:43.434Z,15.07
2022-11-28T09:18:30.570Z,14.48
2022-11-28T09:21:17.596Z,13.50
2022-11-28T09:24:05.208Z,14.00
2022-11-28T09:26:52.292Z,13.63
2022-11-28T09:29:39.573Z,11.82
2022-11-28T09:32:26.597Z,11.82
2022-11-28T09:35:13.631Z,11.77
2022-11-28T09:38:00.668Z,11.75
2022-11-28T09:40:48.419Z,11.90
2022-11-28T09:43:38.346Z,11.50
2022-11-28T09:46:29.941Z,11.68
2022-11-28T09:49:40.399Z,10.27
2022-11-28T09:52:40.312Z,10.68
2022-11-28T09:55:41.934Z,10.65
2022-11-28T09:58:28.882Z,9.40
2022-11-28T10:01:26.035Z,9.63
2022-11-28T10:04:31.876Z,9.65
2022-11-28T10:07:22.042Z,9.40
2022-11-28T10:10:15.006Z,9.65
2022-11-28T10:13:23.776Z,10.13
2022-11-28T10:16:34.938Z,9.60
2022-11-28T10:19:56.661Z,9.65
2022-11-28T10:22:52.312Z,9.73
2022-11-28T10:25:43.939Z,10.83
2022-11-28T10:28:35.934Z,9.25
2022-11-28T10:31:36.392Z,9.40
2022-11-28T10:34:31.618Z,10.20
2022-11-28T10:37:27.966Z,9.45
2022-11-28T10:40:38.895Z,9.55
2022-11-28T10:43:35.950Z,10.93
2022-11-28T10:46:42.391Z,9.52
2022-11-28T10:49:48.102Z,10.10
2022-11-28T10:53:03.826Z,12.02
2022-11-28T10:56:16.106Z,13.20
2022-11-28T10:59:11.723Z,13.70
2022-11-28T11:02:00.597Z,12.38
2022-11-28T11:04:48.176Z,12.32
2022-11-28T11:07:35.309Z,12.93
2022-11-28T11:10:29.642Z,13.07
2022-11-28T11:13:28.111Z,13.00
2022-11-28T11:16:15.243Z,11.85
2022-11-28T11:19:02.435Z,11.20
2022-11-28T11:21:59.933Z,13.13
2022-11-28T11:25:07.412Z,12.27
2022-11-28T11:28:01.259Z,12.10
2022-11-28T11:30:48.579Z,11.93
2022-11-28T11:33:37.587Z,12.68
2022-11-28T11:36:28.065Z,13.02
2022-11-28T11:39:23.641Z,11.75
2022-11-28T11:42:19.379Z,12.70
2022-11-28T11:45:34.229Z,11.73
2022-11-28T11:48:39.673Z,11.43
2022-11-28T11:51:37.997Z,11.95
2022-11-28T11:54:26.814Z,12.50
2022-11-28T11:57:32.576Z,12.13
2022-11-28T12:03:38.104Z,11.23
2022-11-28T12:06:34.066Z,11.52
2022-11-28T12:09:47.314Z,25.00
2022-11-28T12:12:37.068Z,13.32
2022-11-28T12:15:41.384Z,13.10
2022-11-28T12:18:48.030Z,16.20
2022-11-28T12:21:43.324Z,16.70
2022-11-28T12:25:02.453Z,12.25
2022-11-28T12:28:26.942Z,11.88
2022-11-28T12:31:44.447Z,13.18
2022-11-28T12:35:04.729Z,14.23
2022-11-28T12:38:21.853Z,12.40
2022-11-28T12:41:46.433Z,11.90
2022-11-28T12:45:05.598Z,10.18
2022-11-28T12:47:58.614Z,10.70
2022-11-28T12:50:49.326Z,11.07
2022-11-28T12:53:54.197Z,14.77
2022-11-28T12:57:12.210Z,50.17
2022-11-28T13:00:08.740Z,153.73
2022-11-28T13:03:31.565Z,135.70
2022-11-28T13:06:37.626Z,105.97
2022-11-28T13:09:34.443Z,104.70
2022-11-28T13:12:41.961Z,22.27
2022-11-28T13:15:52.159Z,9.35
2022-11-28T13:18:54.682Z,21.42
2022-11-28T13:22:09.997Z,12.77
2022-11-28T13:25:19.518Z,11.30
2022-11-28T13:28:18.424Z,11.43
2022-11-28T13:31:15.358Z,10.05
2022-11-28T13:34:03.412Z,8.38
2022-11-28T13:40:52.893Z,10.27
2022-11-28T13:44:04.564Z,9.50
2022-11-28T13:46:51.832Z,8.98
2022-11-28T13:49:38.878Z,9.70
2022-11-28T13:52:25.922Z,9.18
2022-11-28T13:55:38.117Z,10.23
2022-11-28T13:58:28.989Z,10.10
2022-11-28T14:01:17.852Z,12.57
2022-11-28T14:04:11.978Z,12.00
2022-11-28T14:07:05.426Z,9.98
2022-11-28T14:10:15.494Z,13.70
2022-11-28T14:13:24.773Z,13.48
2022-11-28T14:16:24.454Z,14.00
2022-11-28T14:19:30.753Z,12.60
2022-11-28T14:22:21.373Z,12.85
2022-11-28T14:25:28.682Z,12.82
2022-11-28T14:28:36.926Z,12.98
2022-11-28T14:31:37.205Z,12.20
2022-11-28T14:34:46.325Z,12.70
2022-11-28T14:37:34.894Z,13.95
2022-11-28T14:41:15.595Z,14.38
2022-11-28T14:44:43.935Z,14.32
2022-11-28T14:47:34.879Z,17.55
2022-11-28T14:50:21.900Z,17.38
2022-11-28T14:53:45.541Z,14.52
2022-11-28T14:56:34.169Z,14.35
2022-11-28T14:59:31.334Z,14.55
2022-11-28T15:02:47.835Z,14.15
2022-11-28T15:05:39.705Z,14.85
2022-11-28T15:08:39.270Z,14.40
2022-11-28T15:11:58.366Z,12.32
2022-11-28T15:14:51.070Z,12.63
2022-11-28T15:17:40.201Z,12.02
2022-11-28T15:20:53.768Z,13.45
2022-11-28T15:23:43.777Z,11.20
2022-11-28T15:26:31.366Z,20.05
2022-11-28T15:29:21.946Z,17.38
2022-11-28T15:32:13.569Z,14.55
2022-11-28T15:35:07.726Z,13.50
2022-11-28T15:37:58.633Z,16.27
2022-11-28T15:40:51.437Z,15.43
2022-11-28T15:43:43.552Z,15.82
2022-11-28T15:46:34.128Z,15.43
2022-11-28T15:49:26.978Z,16.33
2022-11-28T15:52:19.981Z,17.52
2022-11-28T15:55:17.007Z,17.42
2022-11-28T15:58:20.947Z,16.20
2022-11-28T16:01:18.653Z,14.98
2022-11-28T16:04:12.738Z,16.30
2022-11-28T16:07:01.945Z,14.57
2022-11-28T16:09:56.502Z,14.02
2022-11-28T16:12:44.233Z,14.15
2022-11-28T16:15:32.100Z,14.70
2022-11-28T16:18:19.528Z,14.48
2022-11-28T16:21:13.195Z,14.70
2022-11-28T16:24:01.592Z,13.82
2022-11-28T16:26:59.875Z,12.40
2022-11-28T16:29:47.048Z,12.13
2022-11-28T16:32:39.701Z,11.15
2022-11-28T16:35:40.349Z,13.88
2022-11-28T16:38:27.558Z,15.80
2022-11-28T16:41:22.893Z,13.35
2022-11-28T16:44:15.576Z,16.77
2022-11-28T16:47:02.837Z,16.42
2022-11-28T16:50:17.539Z,15.82
2022-11-28T16:53:05.185Z,15.65
2022-11-28T16:56:26.621Z,19.45
2022-11-28T16:59:16.506Z,19.63
2022-11-28T17:02:04.283Z,17.42
2022-11-28T17:04:53.083Z,16.77
2022-11-28T17:07:40.160Z,15.70
2022-11-28T17:10:27.801Z,15.95
2022-11-28T17:13:17.216Z,15.57
2022-11-28T17:16:04.599Z,13.77
2022-11-28T17:18:52.196Z,14.27
2022-11-28T17:21:48.410Z,14.05
2022-11-28T17:24:36.244Z,13.68
2022-11-28T17:27:23.231Z,11.65
2022-11-28T17:30:17.237Z,12.85
2022-11-28T17:33:05.291Z,11.70
2022-11-28T17:35:54.448Z,11.75
2022-11-28T17:38:41.513Z,11.07
2022-11-28T17:41:28.588Z,11.02
2022-11-28T17:44:26.050Z,11.40
2022-11-28T17:47:13.660Z,9.82
2022-11-28T17:50:01.519Z,10.05
2022-11-28T17:52:48.654Z,9.82
2022-11-28T17:55:39.525Z,9.93
2022-11-28T17:58:27.172Z,10.43
2022-11-28T18:01:21.730Z,10.13
2022-11-28T18:04:08.790Z,9.25
2022-11-28T18:06:55.823Z,9.98
2022-11-28T18:09:43.247Z,10.60
2022-11-28T18:12:31.153Z,9.90
2022-11-28T18:15:18.259Z,11.70
2022-11-28T18:18:10.718Z,13.30
2022-11-28T18:20:58.424Z,16.85
2022-11-28T18:23:49.368Z,18.20
2022-11-28T18:26:38.804Z,18.42
2022-11-28T18:29:26.063Z,20.02
2022-11-28T18:32:13.711Z,21.08
2022-11-28T18:35:00.700Z,18.42
2022-11-28T18:37:48.032Z,19.42
2022-11-28T18:40:36.283Z,16.90
2022-11-28T18:43:23.294Z,16.30
2022-11-28T18:46:17.030Z,16.20
2022-11-28T18:49:04.362Z,15.20
2022-11-28T18:51:51.861Z,15.48
2022-11-28T18:54:40.314Z,14.98
2022-11-28T18:57:31.311Z,13.93
2022-11-28T19:00:18.999Z,13.20
2022-11-28T19:03:08.877Z,13.32
2022-11-28T19:05:56.281Z,15.48
2022-11-28T19:08:43.332Z,13.75
2022-11-28T19:11:31.412Z,16.17
2022-11-28T19:14:21.093Z,15.15
2022-11-28T19:17:08.637Z,15.13
2022-11-28T19:19:55.801Z,12.18
2022-11-28T19:22:42.845Z,13.52
2022-11-28T19:25:31.658Z,13.40
2022-11-28T19:28:18.714Z,12.75
2022-11-28T19:31:15.575Z,12.13
2022-11-28T19:34:12.607Z,12.45
2022-11-28T19:37:00.040Z,12.40
2022-11-28T19:39:47.311Z,13.82
2022-11-28T19:42:35.216Z,13.55
2022-11-28T19:45:22.354Z,12.95
2022-11-28T19:48:09.478Z,13.10
2022-11-28T19:50:56.897Z,13.00
2022-11-28T19:53:44.641Z,12.57
2022-11-28T19:56:32.989Z,12.07
2022-11-28T19:59:20.032Z,12.90
2022-11-28T20:02:09.372Z,12.63
2022-11-28T20:04:58.727Z,11.70
2022-11-28T20:07:45.910Z,12.43
2022-11-28T20:10:37.757Z,11.57
2022-11-28T20:13:25.378Z,13.73
2022-11-28T20:16:14.228Z,15.93
2022-11-28T20:19:02.106Z,14.88
2022-11-28T20:21:49.114Z,17.33
2022-11-28T20:24:36.393Z,22.33
2022-11-28T20:27:23.700Z,24.58
2022-11-28T20:30:13.740Z,24.80
2022-11-28T20:33:01.225Z,26.65
2022-11-28T20:35:48.379Z,23.35
2022-11-28T20:38:36.471Z,20.77
2022-11-28T20:41:25.008Z,19.30
2022-11-28T20:44:12.016Z,17.70
2022-11-28T20:46:59.261Z,15.30
2022-11-28T20:49:46.520Z,16.15
2022-11-28T20:52:33.707Z,14.95
2022-11-28T20:55:20.724Z,13.57
2022-11-28T20:58:07.768Z,15.25
2022-11-28T21:00:55.015Z,13.00
2022-11-28T21:03:42.498Z,13.10
2022-11-28T21:06:29.989Z,13.38
2022-11-28T21:09:19.949Z,13.18
2022-11-28T21:12:07.389Z,14.23
2022-11-28T21:14:54.709Z,15.60
2022-11-28T21:17:41.733Z,19.00
2022-11-28T21:20:30.814Z,25.05
2022-11-28T21:23:17.843Z,26.75
2022-11-28T21:26:10.955Z,31.02
2022-11-28T21:29:01.785Z,30.05
2022-11-28T21:31:48.943Z,31.70
2022-11-28T21:34:36.115Z,32.05
2022-11-28T21:37:23.127Z,30.92
2022-11-28T21:40:10.740Z,27.15
2022-11-28T21:42:58.471Z,28.52
2022-11-28T21:45:46.183Z,29.30
2022-11-28T21:48:35.015Z,27.73
2022-11-28T21:51:24.994Z,27.58
2022-11-28T21:54:12.544Z,30.77
2022-11-28T21:57:00.128Z,30.45
2022-11-28T21:59:47.245Z,33.78
2022-11-28T22:02:34.583Z,32.83
2022-11-28T22:05:21.655Z,32.95
2022-11-28T22:08:10.672Z,24.40
2022-11-28T22:11:00.929Z,26.38
2022-11-28T22:13:50.029Z,23.27
2022-11-28T22:16:37.414Z,21.60
2022-11-28T22:19:24.495Z,20.98
2022-11-28T22:22:11.870Z,20.23
2022-11-28T22:25:00.523Z,20.63
2022-11-28T22:27:47.938Z,18.83
2022-11-28T22:30:37.026Z,19.50
2022-11-28T22:33:24.128Z,18.52
2022-11-28T22:36:13.853Z,17.08
2022-11-28T22:39:02.397Z,16.02
2022-11-28T22:41:49.681Z,15.70
2022-11-28T22:44:37.523Z,14.57
2022-11-28T22:47:24.899Z,15.07
2022-11-28T22:50:12.570Z,14.85
2022-11-28T22:52:59.763Z,14.15
2022-11-28T22:55:46.851Z,15.20
2022-11-28T22:58:42.461Z,14.35
2022-11-28T23:01:32.024Z,14.88
2022-11-28T23:04:21.203Z,13.93
2022-11-28T23:07:08.229Z,14.88
2022-11-28T23:09:55.334Z,14.23
2022-11-28T23:12:42.737Z,13.60
2022-11-28T23:15:29.912Z,13.07
2022-11-28T23:18:17.389Z,13.73
2022-11-28T23:21:05.280Z,12.50
2022-11-28T23:23:53.006Z,13.80
2022-11-28T23:26:40.648Z,13.57
2022-11-28T23:29:27.798Z,13.23
2022-11-28T23:32:15.321Z,14.52
2022-11-28T23:35:02.392Z,14.27
2022-11-28T23:37:49.422Z,13.35
2022-11-28T23:40:36.430Z,15.05
2022-11-28T23:43:23.496Z,14.65
2022-11-28T23:46:11.711Z,15.57
2022-11-28T23:48:58.849Z,14.57
2022-11-28T23:51:45.876Z,14.05
2022-11-28T23:54:33.364Z,15.43
2022-11-28T23:57:20.452Z,13.80
